createdAt,value
2022-12-17T00:02:27.525Z,101295.53
2022-12-17T00:08:16.046Z,101297.50
2022-12-17T00:13:56.372Z,101299.94
2022-12-17T00:19:36.652Z,101312.03
2022-12-17T00:25:17.384Z,101303.75
2022-12-17T00:30:58.549Z,101316.47
2022-12-17T00:36:39.394Z,101308.72
2022-12-17T00:42:20.343Z,101296.88
2022-12-17T00:48:01.314Z,101302.63
2022-12-17T00:53:42.952Z,101298.50
2022-12-17T00:59:22.836Z,101297.84
2022-12-17T01:05:11.163Z,101269.69
2022-12-17T01:10:51.894Z,101295.38
2022-12-17T01:16:33.990Z,101292.91
2022-12-17T01:22:15.024Z,101269.69
2022-12-17T01:27:56.253Z,101282.34
2022-12-17T01:33:37.334Z,101278.06
2022-12-17T01:39:18.437Z,101266.50
2022-12-17T01:44:59.143Z,101277.72
2022-12-17T01:50:42.741Z,101257.63
2022-12-17T01:56:24.554Z,101260.53
2022-12-17T02:02:05.806Z,101237.78
2022-12-17T02:08:19.570Z,101265.28
2022-12-17T02:14:25.228Z,101252.25
2022-12-17T02:20:28.313Z,101229.72
2022-12-17T02:26:32.794Z,101250.81
2022-12-17T02:32:14.133Z,101243.56
2022-12-17T02:37:54.711Z,101227.41
2022-12-17T02:43:36.252Z,101240.13
2022-12-17T02:49:17.064Z,101236.31
2022-12-17T02:54:57.870Z,101232.66
2022-12-17T03:00:39.929Z,101222.06
2022-12-17T03:06:21.314Z,101210.03
2022-12-17T03:12:01.159Z,101204.47
2022-12-17T03:17:41.730Z,101195.59
2022-12-17T03:23:24.131Z,101185.28
2022-12-17T03:29:04.491Z,101172.44
2022-12-17T03:34:44.482Z,101169.19
2022-12-17T03:40:25.671Z,101172.75
2022-12-17T03:46:11.757Z,101170.25
2022-12-17T03:51:52.731Z,101171.94
2022-12-17T03:57:50.199Z,101171.75
2022-12-17T04:03:31.273Z,101163.84
2022-12-17T04:09:12.122Z,101185.66
2022-12-17T04:14:52.444Z,101165.63
2022-12-17T04:20:30.142Z,101168.56
2022-12-17T04:26:10.352Z,101151.00
2022-12-17T04:31:50.979Z,101168.56
2022-12-17T04:37:32.783Z,101162.94
2022-12-17T04:43:16.362Z,101149.09
2022-12-17T04:48:58.792Z,101159.81
2022-12-17T04:54:39.790Z,101150.91
2022-12-17T05:00:20.371Z,101137.84
2022-12-17T05:06:17.272Z,101143.31
2022-12-17T05:11:57.693Z,101149.09
2022-12-17T05:17:38.578Z,101154.81
2022-12-17T05:23:29.171Z,101151.53
2022-12-17T05:29:15.405Z,101162.41
2022-12-17T05:34:57.009Z,101144.75
2022-12-17T05:40:37.657Z,101143.63
2022-12-17T05:46:20.041Z,101144.88
2022-12-17T05:52:01.100Z,101160.00
2022-12-17T05:57:41.492Z,101147.00
2022-12-17T06:03:23.650Z,101171.50
2022-12-17T06:09:03.972Z,101159.34
2022-12-17T06:14:44.181Z,101154.31
2022-12-17T06:20:25.070Z,101148.03
2022-12-17T06:26:06.333Z,101156.25
2022-12-17T06:32:00.875Z,101159.09
2022-12-17T06:37:41.991Z,101162.28
2022-12-17T06:43:22.812Z,101152.44
2022-12-17T06:49:04.543Z,101154.09
2022-12-17T06:54:48.162Z,101147.34
2022-12-17T07:00:32.014Z,101162.50
2022-12-17T07:06:13.102Z,101157.72
2022-12-17T07:11:54.018Z,101151.66
2022-12-17T07:17:34.959Z,101136.41
2022-12-17T07:23:15.837Z,101141.31
2022-12-17T07:28:56.539Z,101165.50
2022-12-17T07:34:37.265Z,101145.91
2022-12-17T07:40:17.346Z,101141.84
2022-12-17T07:45:57.906Z,101114.75
2022-12-17T07:51:38.295Z,101120.84
2022-12-17T07:57:18.442Z,101138.34
2022-12-17T08:02:58.921Z,101115.66
2022-12-17T08:08:39.731Z,101117.00
2022-12-17T08:14:20.455Z,101097.13
2022-12-17T08:20:01.864Z,101074.97
2022-12-17T08:25:46.836Z,101086.34
2022-12-17T08:31:27.783Z,101061.53
2022-12-17T08:37:11.955Z,101049.06
2022-12-17T08:42:56.747Z,101045.78
2022-12-17T08:48:38.066Z,101065.81
2022-12-17T08:54:19.055Z,101024.75
2022-12-17T09:00:04.315Z,101025.41
2022-12-17T09:05:53.369Z,101013.88
2022-12-17T09:11:37.109Z,100998.78
2022-12-17T09:17:17.960Z,101023.75
2022-12-17T09:22:58.386Z,101006.19
2022-12-17T09:28:38.895Z,100983.00
2022-12-17T09:34:19.280Z,100970.88
2022-12-17T09:39:59.216Z,100987.28
2022-12-17T09:45:54.587Z,100977.59
2022-12-17T09:51:47.103Z,100983.00
2022-12-17T09:57:33.082Z,100960.50
2022-12-17T10:03:13.535Z,100979.91
2022-12-17T10:08:54.936Z,100941.63
2022-12-17T10:14:40.373Z,100968.72
2022-12-17T10:20:21.296Z,100933.06
2022-12-17T10:26:10.325Z,100948.34
2022-12-17T10:31:52.634Z,100909.72
2022-12-17T10:37:41.007Z,100903.13
2022-12-17T10:43:21.269Z,100921.22
2022-12-17T10:49:05.683Z,100915.66
2022-12-17T10:54:51.334Z,100915.47
2022-12-17T11:00:53.277Z,100881.16
2022-12-17T11:06:42.256Z,100885.44
2022-12-17T11:12:30.905Z,100874.94
2022-12-17T11:18:12.070Z,100883.28
2022-12-17T11:23:55.393Z,100896.94
2022-12-17T11:29:36.450Z,100868.50
2022-12-17T11:35:22.694Z,100856.69
2022-12-17T11:41:07.083Z,100866.69
2022-12-17T11:47:11.676Z,100860.81
2022-12-17T11:53:01.017Z,100851.59
2022-12-17T11:58:54.420Z,100833.53
2022-12-17T12:04:48.053Z,100824.81
2022-12-17T12:10:43.079Z,100836.81
2022-12-17T12:16:31.290Z,100836.31
2022-12-17T12:22:30.354Z,100837.78
2022-12-17T12:28:14.886Z,100850.63
2022-12-17T12:34:02.288Z,100841.25
2022-12-17T12:39:57.551Z,100824.03
2022-12-17T12:46:06.819Z,100820.75
2022-12-17T12:51:50.097Z,100809.91
2022-12-17T12:58:06.743Z,100811.34
2022-12-17T13:03:59.817Z,100798.06
2022-12-17T13:09:34.097Z,100792.66
2022-12-17T13:15:08.453Z,100789.84
2022-12-17T13:26:45.373Z,100777.59
2022-12-17T13:50:37.160Z,100765.25
2022-12-17T14:26:12.206Z,100697.25
2022-12-17T14:31:44.750Z,100711.50
2022-12-17T14:37:20.303Z,100673.69
2022-12-17T14:42:44.460Z,100670.84
2022-12-17T14:48:16.497Z,100662.50
2022-12-17T14:53:39.125Z,100682.16
2022-12-17T14:59:01.065Z,100677.72
2022-12-17T15:04:26.462Z,100661.22
2022-12-17T15:09:57.897Z,100661.34
2022-12-17T15:15:22.325Z,100675.63
2022-12-17T15:20:45.425Z,100689.06
2022-12-17T15:26:07.097Z,100687.69
2022-12-17T15:31:35.063Z,100663.25
2022-12-17T15:36:57.564Z,100639.66
2022-12-17T15:42:38.235Z,100647.00
2022-12-17T15:48:00.303Z,100664.31
2022-12-17T15:53:22.075Z,100623.72
2022-12-17T15:58:44.285Z,100641.88
2022-12-17T16:04:12.000Z,100639.75
2022-12-17T16:09:37.981Z,100633.97
2022-12-17T16:15:00.004Z,100636.41
2022-12-17T16:20:22.360Z,100645.38
2022-12-17T16:25:38.908Z,100634.13
2022-12-17T16:31:07.699Z,100645.72
2022-12-17T16:36:29.643Z,100641.47
2022-12-17T16:41:51.255Z,100628.50
2022-12-17T16:47:13.316Z,100607.59
2022-12-17T16:52:35.476Z,100604.50
2022-12-17T16:57:57.430Z,100614.16
2022-12-17T17:03:19.493Z,100605.94
2022-12-17T17:08:45.867Z,100605.25
2022-12-17T17:14:09.719Z,100608.41
2022-12-17T17:19:31.838Z,100594.09
2022-12-17T17:24:53.909Z,100599.53
2022-12-17T17:30:16.715Z,100575.94
2022-12-17T17:35:38.475Z,100599.19
2022-12-17T17:41:00.497Z,100563.19
2022-12-17T17:46:24.385Z,100557.81
2022-12-17T17:57:28.153Z,100571.63
2022-12-17T18:02:50.085Z,100555.19
2022-12-17T18:08:11.918Z,100543.59
2022-12-17T18:13:52.543Z,100526.13
2022-12-17T18:19:25.908Z,100522.78
2022-12-17T18:24:48.166Z,100514.94
2022-12-17T18:30:10.865Z,100536.03
2022-12-17T18:35:36.580Z,100528.19
2022-12-17T18:41:05.395Z,100560.66
2022-12-17T18:46:28.670Z,100569.88
2022-12-17T18:51:53.098Z,100579.28
2022-12-17T18:57:15.230Z,100554.91
2022-12-17T19:02:37.561Z,100531.41
2022-12-17T19:07:59.772Z,100514.06
2022-12-17T19:13:21.845Z,100479.06
2022-12-17T19:18:44.853Z,100464.19
2022-12-17T19:24:09.975Z,100456.41
2022-12-17T19:29:31.767Z,100463.03
2022-12-17T19:34:53.796Z,100464.41
2022-12-17T19:40:15.585Z,100473.56
2022-12-17T19:45:37.180Z,100464.69
2022-12-17T19:50:59.816Z,100481.38
2022-12-17T19:56:32.170Z,100463.94
2022-12-17T20:01:54.319Z,100423.25
2022-12-17T20:07:16.453Z,100457.25
2022-12-17T20:12:38.611Z,100435.03
2022-12-17T20:18:00.600Z,100465.59
2022-12-17T20:23:22.998Z,100441.66
2022-12-17T20:28:46.162Z,100429.22
2022-12-17T20:34:12.096Z,100453.28
2022-12-17T20:39:34.478Z,100420.63
2022-12-17T20:44:56.296Z,100395.94
2022-12-17T20:50:19.551Z,100389.06
2022-12-17T20:55:41.865Z,100373.03
2022-12-17T21:01:08.656Z,100394.59
2022-12-17T21:06:38.689Z,100382.63
2022-12-17T21:12:00.268Z,100383.72
2022-12-17T21:17:22.044Z,100373.84
2022-12-17T21:22:44.433Z,100354.19
2022-12-17T21:28:06.541Z,100361.31
2022-12-17T21:33:29.559Z,100354.78
2022-12-17T21:38:53.190Z,100327.41
2022-12-17T21:44:15.881Z,100346.63
2022-12-17T21:49:37.913Z,100320.53
2022-12-17T21:54:59.891Z,100321.63
2022-12-17T22:00:23.284Z,100341.38
2022-12-17T22:05:45.477Z,100297.50
2022-12-17T22:11:19.204Z,100278.75
2022-12-17T22:16:47.808Z,100293.78
2022-12-17T22:22:09.929Z,100282.63
2022-12-17T22:27:32.256Z,100247.84
2022-12-17T22:33:00.269Z,100264.31
2022-12-17T22:40:35.808Z,100227.88
2022-12-17T22:44:42.958Z,100222.00
2022-12-17T22:49:48.806Z,100212.03
2022-12-17T22:55:11.187Z,100204.78
2022-12-17T23:00:36.958Z,100164.56
2022-12-17T23:06:13.437Z,100146.97
2022-12-17T23:11:35.750Z,100137.63
2022-12-17T23:17:00.424Z,100118.81
2022-12-17T23:22:23.174Z,100080.06
2022-12-17T23:27:47.483Z,100086.59
2022-12-17T23:33:10.537Z,100080.69
2022-12-17T23:38:32.911Z,100093.84
2022-12-17T23:44:00.790Z,100095.00
2022-12-17T23:49:23.255Z,100077.56
2022-12-17T23:54:46.190Z,100093.91
